sensor_id;sensor_type;location;lat;lon;timestamp;P1;durP1;ratioP1;P2;durP2;ratioP2
28266;SDS011;15525;45.568;5.448;2024-01-11T00:00:13;140.60;;;40.17;;
28266;SDS011;15525;45.568;5.448;2024-01-11T00:02:39;158.38;;;40.63;;
28266;SDS011;15525;45.568;5.448;2024-01-11T00:05:05;114.57;;;37.67;;
28266;SDS011;15525;45.568;5.448;2024-01-11T00:07:31;144.50;;;40.90;;
28266;SDS011;15525;45.568;5.448;2024-01-11T00:09:57;167.52;;;40.42;;
28266;SDS011;15525;45.568;5.448;2024-01-11T00:12:22;134.15;;;38.65;;
28266;SDS011;15525;45.568;5.448;2024-01-11T00:14:48;157.07;;;41.30;;
28266;SDS011;15525;45.568;5.448;2024-01-11T00:17:13;150.05;;;40.70;;
28266;SDS011;15525;45.568;5.448;2024-01-11T00:19:39;145.43;;;40.80;;
28266;SDS011;15525;45.568;5.448;2024-01-11T00:22:04;138.63;;;40.58;;
28266;SDS011;15525;45.568;5.448;2024-01-11T00:24:31;186.35;;;42.45;;
28266;SDS011;15525;45.568;5.448;2024-01-11T00:26:56;169.43;;;41.47;;
28266;SDS011;15525;45.568;5.448;2024-01-11T00:29:21;198.75;;;41.03;;
28266;SDS011;15525;45.568;5.448;2024-01-11T00:31:47;156.48;;;40.95;;
28266;SDS011;15525;45.568;5.448;2024-01-11T00:34:12;150.90;;;41.15;;
28266;SDS011;15525;45.568;5.448;2024-01-11T00:36:37;128.57;;;40.30;;
28266;SDS011;15525;45.568;5.448;2024-01-11T00:39:03;131.40;;;40.88;;
28266;SDS011;15525;45.568;5.448;2024-01-11T00:41:29;137.98;;;42.08;;
28266;SDS011;15525;45.568;5.448;2024-01-11T00:43:54;160.98;;;41.22;;
28266;SDS011;15525;45.568;5.448;2024-01-11T00:46:19;228.32;;;76.85;;
28266;SDS011;15525;45.568;5.448;2024-01-11T00:48:45;154.90;;;54.72;;
28266;SDS011;15525;45.568;5.448;2024-01-11T00:51:10;148.98;;;47.72;;
28266;SDS011;15525;45.568;5.448;2024-01-11T00:53:36;130.65;;;44.05;;
28266;SDS011;15525;45.568;5.448;2024-01-11T00:56:01;137.98;;;44.75;;
28266;SDS011;15525;45.568;5.448;2024-01-11T00:58:27;130.82;;;43.75;;
28266;SDS011;15525;45.568;5.448;2024-01-11T01:00:53;125.20;;;41.55;;
28266;SDS011;15525;45.568;5.448;2024-01-11T01:03:22;148.48;;;43.97;;
28266;SDS011;15525;45.568;5.448;2024-01-11T01:05:47;130.30;;;43.50;;
28266;SDS011;15525;45.568;5.448;2024-01-11T01:08:13;143.68;;;44.95;;
28266;SDS011;15525;45.568;5.448;2024-01-11T01:10:39;146.57;;;45.03;;
28266;SDS011;15525;45.568;5.448;2024-01-11T01:13:05;131.93;;;43.80;;
28266;SDS011;15525;45.568;5.448;2024-01-11T01:15:31;134.95;;;43.30;;
28266;SDS011;15525;45.568;5.448;2024-01-11T01:17:57;145.68;;;45.65;;
28266;SDS011;15525;45.568;5.448;2024-01-11T01:20:23;118.53;;;41.47;;
28266;SDS011;15525;45.568;5.448;2024-01-11T01:22:49;127.45;;;42.47;;
28266;SDS011;15525;45.568;5.448;2024-01-11T01:25:14;129.35;;;42.35;;
28266;SDS011;15525;45.568;5.448;2024-01-11T01:27:40;124.57;;;41.05;;
28266;SDS011;15525;45.568;5.448;2024-01-11T01:30:05;118.40;;;39.97;;
28266;SDS011;15525;45.568;5.448;2024-01-11T01:32:31;119.70;;;39.00;;
28266;SDS011;15525;45.568;5.448;2024-01-11T01:34:57;128.38;;;41.47;;
28266;SDS011;15525;45.568;5.448;2024-01-11T01:37:22;118.97;;;40.65;;
28266;SDS011;15525;45.568;5.448;2024-01-11T01:39:48;121.90;;;40.60;;
28266;SDS011;15525;45.568;5.448;2024-01-11T01:42:13;110.25;;;41.35;;
28266;SDS011;15525;45.568;5.448;2024-01-11T01:44:38;121.53;;;41.88;;
28266;SDS011;15525;45.568;5.448;2024-01-11T01:47:06;115.90;;;39.45;;
28266;SDS011;15525;45.568;5.448;2024-01-11T01:49:33;110.03;;;40.25;;
28266;SDS011;15525;45.568;5.448;2024-01-11T01:52:00;100.10;;;38.20;;
28266;SDS011;15525;45.568;5.448;2024-01-11T01:54:26;103.20;;;36.95;;
28266;SDS011;15525;45.568;5.448;2024-01-11T01:56:52;113.35;;;39.35;;
28266;SDS011;15525;45.568;5.448;2024-01-11T01:59:18;110.90;;;40.47;;
28266;SDS011;15525;45.568;5.448;2024-01-11T02:01:46;99.10;;;35.58;;
28266;SDS011;15525;45.568;5.448;2024-01-11T02:04:11;107.55;;;39.08;;
28266;SDS011;15525;45.568;5.448;2024-01-11T02:06:40;105.13;;;37.95;;
28266;SDS011;15525;45.568;5.448;2024-01-11T02:09:06;114.43;;;39.83;;
28266;SDS011;15525;45.568;5.448;2024-01-11T02:11:34;113.85;;;38.35;;
28266;SDS011;15525;45.568;5.448;2024-01-11T02:13:59;114.20;;;39.53;;
28266;SDS011;15525;45.568;5.448;2024-01-11T02:16:25;119.13;;;39.60;;
28266;SDS011;15525;45.568;5.448;2024-01-11T02:18:50;106.45;;;38.20;;
28266;SDS011;15525;45.568;5.448;2024-01-11T02:21:16;101.25;;;37.08;;
28266;SDS011;15525;45.568;5.448;2024-01-11T02:23:43;108.57;;;36.65;;
28266;SDS011;15525;45.568;5.448;2024-01-11T02:26:14;109.22;;;38.35;;
28266;SDS011;15525;45.568;5.448;2024-01-11T02:28:43;130.23;;;40.95;;
28266;SDS011;15525;45.568;5.448;2024-01-11T02:31:10;113.72;;;39.85;;
28266;SDS011;15525;45.568;5.448;2024-01-11T02:33:36;110.80;;;37.63;;
28266;SDS011;15525;45.568;5.448;2024-01-11T02:36:01;119.07;;;39.85;;
28266;SDS011;15525;45.568;5.448;2024-01-11T02:38:27;115.55;;;38.28;;
28266;SDS011;15525;45.568;5.448;2024-01-11T02:40:53;112.68;;;39.67;;
28266;SDS011;15525;45.568;5.448;2024-01-11T02:43:20;123.40;;;40.10;;
28266;SDS011;15525;45.568;5.448;2024-01-11T02:45:45;115.22;;;38.95;;
28266;SDS011;15525;45.568;5.448;2024-01-11T02:48:10;119.00;;;38.72;;
28266;SDS011;15525;45.568;5.448;2024-01-11T02:50:36;109.53;;;38.72;;
28266;SDS011;15525;45.568;5.448;2024-01-11T02:53:01;113.72;;;37.50;;
28266;SDS011;15525;45.568;5.448;2024-01-11T02:55:27;110.28;;;39.17;;
28266;SDS011;15525;45.568;5.448;2024-01-11T02:57:52;106.65;;;39.22;;
28266;SDS011;15525;45.568;5.448;2024-01-11T03:00:17;102.85;;;37.30;;
28266;SDS011;15525;45.568;5.448;2024-01-11T03:02:43;101.50;;;36.70;;
28266;SDS011;15525;45.568;5.448;2024-01-11T03:05:08;116.97;;;39.22;;
28266;SDS011;15525;45.568;5.448;2024-01-11T03:07:34;128.25;;;46.08;;
28266;SDS011;15525;45.568;5.448;2024-01-11T03:09:59;113.07;;;38.47;;
28266;SDS011;15525;45.568;5.448;2024-01-11T03:12:25;109.63;;;37.42;;
28266;SDS011;15525;45.568;5.448;2024-01-11T03:14:51;105.47;;;38.15;;
28266;SDS011;15525;45.568;5.448;2024-01-11T03:17:16;110.38;;;39.00;;
28266;SDS011;15525;45.568;5.448;2024-01-11T03:19:42;108.95;;;39.20;;
28266;SDS011;15525;45.568;5.448;2024-01-11T03:22:07;103.05;;;36.28;;
28266;SDS011;15525;45.568;5.448;2024-01-11T03:24:33;104.15;;;36.53;;
28266;SDS011;15525;45.568;5.448;2024-01-11T03:27:02;101.00;;;35.90;;
28266;SDS011;15525;45.568;5.448;2024-01-11T03:29:27;105.90;;;36.13;;
28266;SDS011;15525;45.568;5.448;2024-01-11T03:31:53;103.30;;;36.65;;
28266;SDS011;15525;45.568;5.448;2024-01-11T03:34:18;112.53;;;37.20;;
28266;SDS011;15525;45.568;5.448;2024-01-11T03:36:43;110.50;;;37.33;;
28266;SDS011;15525;45.568;5.448;2024-01-11T03:39:09;100.20;;;36.58;;
28266;SDS011;15525;45.568;5.448;2024-01-11T03:41:34;102.28;;;35.83;;
28266;SDS011;15525;45.568;5.448;2024-01-11T03:44:00;107.22;;;36.25;;
28266;SDS011;15525;45.568;5.448;2024-01-11T03:46:25;107.43;;;37.35;;
28266;SDS011;15525;45.568;5.448;2024-01-11T03:48:51;109.25;;;36.53;;
28266;SDS011;15525;45.568;5.448;2024-01-11T03:51:16;112.95;;;36.70;;
28266;SDS011;15525;45.568;5.448;2024-01-11T03:53:41;115.53;;;38.65;;
28266;SDS011;15525;45.568;5.448;2024-01-11T03:56:07;109.50;;;36.75;;
28266;SDS011;15525;45.568;5.448;2024-01-11T03:58:32;109.63;;;37.60;;
28266;SDS011;15525;45.568;5.448;2024-01-11T04:00:58;103.22;;;35.30;;
28266;SDS011;15525;45.568;5.448;2024-01-11T04:03:23;100.85;;;35.20;;
28266;SDS011;15525;45.568;5.448;2024-01-11T04:05:48;108.20;;;35.85;;
28266;SDS011;15525;45.568;5.448;2024-01-11T04:08:14;107.07;;;36.38;;
28266;SDS011;15525;45.568;5.448;2024-01-11T04:10:39;101.85;;;36.13;;
28266;SDS011;15525;45.568;5.448;2024-01-11T04:13:06;96.88;;;35.97;;
28266;SDS011;15525;45.568;5.448;2024-01-11T04:15:32;107.93;;;37.00;;
28266;SDS011;15525;45.568;5.448;2024-01-11T04:17:57;99.05;;;33.53;;
28266;SDS011;15525;45.568;5.448;2024-01-11T04:20:22;111.00;;;36.95;;
28266;SDS011;15525;45.568;5.448;2024-01-11T04:22:49;98.90;;;36.08;;
28266;SDS011;15525;45.568;5.448;2024-01-11T04:25:14;108.32;;;35.90;;
28266;SDS011;15525;45.568;5.448;2024-01-11T04:27:40;105.40;;;34.97;;
28266;SDS011;15525;45.568;5.448;2024-01-11T04:30:05;107.97;;;37.28;;
28266;SDS011;15525;45.568;5.448;2024-01-11T04:32:31;108.35;;;35.33;;
28266;SDS011;15525;45.568;5.448;2024-01-11T04:34:57;112.35;;;37.05;;
28266;SDS011;15525;45.568;5.448;2024-01-11T04:37:23;120.22;;;36.35;;
28266;SDS011;15525;45.568;5.448;2024-01-11T04:39:48;102.60;;;35.67;;
28266;SDS011;15525;45.568;5.448;2024-01-11T04:42:14;104.47;;;35.47;;
28266;SDS011;15525;45.568;5.448;2024-01-11T04:44:39;111.07;;;36.53;;
28266;SDS011;15525;45.568;5.448;2024-01-11T04:47:05;111.72;;;35.20;;
28266;SDS011;15525;45.568;5.448;2024-01-11T04:49:30;107.88;;;36.08;;
28266;SDS011;15525;45.568;5.448;2024-01-11T04:51:55;98.90;;;35.17;;
28266;SDS011;15525;45.568;5.448;2024-01-11T04:54:21;110.78;;;37.05;;
28266;SDS011;15525;45.568;5.448;2024-01-11T04:56:46;108.30;;;36.83;;
28266;SDS011;15525;45.568;5.448;2024-01-11T04:59:11;102.85;;;34.20;;
28266;SDS011;15525;45.568;5.448;2024-01-11T05:01:37;108.03;;;35.53;;
28266;SDS011;15525;45.568;5.448;2024-01-11T05:04:02;103.45;;;34.33;;
28266;SDS011;15525;45.568;5.448;2024-01-11T05:06:28;108.60;;;35.28;;
28266;SDS011;15525;45.568;5.448;2024-01-11T05:08:54;107.40;;;36.13;;
28266;SDS011;15525;45.568;5.448;2024-01-11T05:11:20;310.85;;;115.35;;
28266;SDS011;15525;45.568;5.448;2024-01-11T05:13:47;160.10;;;51.78;;
28266;SDS011;15525;45.568;5.448;2024-01-11T05:16:19;124.13;;;39.85;;
28266;SDS011;15525;45.568;5.448;2024-01-11T05:18:46;114.55;;;38.40;;
28266;SDS011;15525;45.568;5.448;2024-01-11T05:21:11;105.28;;;36.40;;
28266;SDS011;15525;45.568;5.448;2024-01-11T05:23:37;108.70;;;35.17;;
28266;SDS011;15525;45.568;5.448;2024-01-11T05:26:02;102.90;;;35.85;;
28266;SDS011;15525;45.568;5.448;2024-01-11T05:28:27;109.68;;;36.53;;
28266;SDS011;15525;45.568;5.448;2024-01-11T05:30:53;109.00;;;36.33;;
28266;SDS011;15525;45.568;5.448;2024-01-11T05:33:18;106.32;;;36.42;;
28266;SDS011;15525;45.568;5.448;2024-01-11T05:35:43;98.70;;;34.25;;
28266;SDS011;15525;45.568;5.448;2024-01-11T05:38:09;104.38;;;34.53;;
28266;SDS011;15525;45.568;5.448;2024-01-11T05:40:34;106.95;;;35.63;;
28266;SDS011;15525;45.568;5.448;2024-01-11T05:43:00;108.05;;;33.97;;
28266;SDS011;15525;45.568;5.448;2024-01-11T05:45:25;104.43;;;35.78;;
28266;SDS011;15525;45.568;5.448;2024-01-11T05:47:50;114.57;;;35.55;;
28266;SDS011;15525;45.568;5.448;2024-01-11T05:50:16;108.63;;;35.95;;
28266;SDS011;15525;45.568;5.448;2024-01-11T05:52:41;110.32;;;34.80;;
28266;SDS011;15525;45.568;5.448;2024-01-11T05:55:07;100.57;;;34.28;;
28266;SDS011;15525;45.568;5.448;2024-01-11T05:57:32;104.68;;;34.78;;
28266;SDS011;15525;45.568;5.448;2024-01-11T05:59:58;100.43;;;34.05;;
28266;SDS011;15525;45.568;5.448;2024-01-11T06:02:23;98.15;;;34.45;;
28266;SDS011;15525;45.568;5.448;2024-01-11T06:04:49;99.10;;;33.75;;
28266;SDS011;15525;45.568;5.448;2024-01-11T06:07:14;102.78;;;33.72;;
28266;SDS011;15525;45.568;5.448;2024-01-11T06:09:40;101.63;;;33.83;;
28266;SDS011;15525;45.568;5.448;2024-01-11T06:12:05;104.38;;;36.42;;
28266;SDS011;15525;45.568;5.448;2024-01-11T06:14:31;93.90;;;32.78;;
28266;SDS011;15525;45.568;5.448;2024-01-11T06:16:56;114.93;;;36.58;;
28266;SDS011;15525;45.568;5.448;2024-01-11T06:19:22;96.93;;;34.05;;
28266;SDS011;15525;45.568;5.448;2024-01-11T06:21:48;98.05;;;34.05;;
28266;SDS011;15525;45.568;5.448;2024-01-11T06:24:13;92.68;;;33.28;;
28266;SDS011;15525;45.568;5.448;2024-01-11T06:26:39;98.15;;;33.78;;
28266;SDS011;15525;45.568;5.448;2024-01-11T06:29:04;104.03;;;34.22;;
28266;SDS011;15525;45.568;5.448;2024-01-11T06:31:29;85.78;;;30.38;;
28266;SDS011;15525;45.568;5.448;2024-01-11T06:33:55;96.93;;;32.50;;
28266;SDS011;15525;45.568;5.448;2024-01-11T06:36:21;98.20;;;33.70;;
28266;SDS011;15525;45.568;5.448;2024-01-11T06:38:46;97.32;;;33.78;;
28266;SDS011;15525;45.568;5.448;2024-01-11T06:41:11;101.05;;;35.33;;
28266;SDS011;15525;45.568;5.448;2024-01-11T06:43:37;106.85;;;33.55;;
28266;SDS011;15525;45.568;5.448;2024-01-11T06:46:03;95.82;;;33.58;;
28266;SDS011;15525;45.568;5.448;2024-01-11T06:48:29;93.13;;;33.17;;
28266;SDS011;15525;45.568;5.448;2024-01-11T06:50:56;89.72;;;31.88;;
28266;SDS011;15525;45.568;5.448;2024-01-11T06:53:21;92.97;;;32.47;;
28266;SDS011;15525;45.568;5.448;2024-01-11T06:55:46;98.53;;;33.15;;
28266;SDS011;15525;45.568;5.448;2024-01-11T06:58:12;105.55;;;39.38;;
28266;SDS011;15525;45.568;5.448;2024-01-11T07:00:38;106.25;;;38.65;;
28266;SDS011;15525;45.568;5.448;2024-01-11T07:03:08;98.45;;;36.72;;
28266;SDS011;15525;45.568;5.448;2024-01-11T07:05:35;100.15;;;35.25;;
28266;SDS011;15525;45.568;5.448;2024-01-11T07:08:01;99.60;;;36.92;;
28266;SDS011;15525;45.568;5.448;2024-01-11T07:10:26;95.40;;;36.40;;
28266;SDS011;15525;45.568;5.448;2024-01-11T07:12:51;101.45;;;35.38;;
28266;SDS011;15525;45.568;5.448;2024-01-11T07:15:17;93.00;;;33.03;;
28266;SDS011;15525;45.568;5.448;2024-01-11T07:17:42;91.10;;;33.40;;
28266;SDS011;15525;45.568;5.448;2024-01-11T07:20:08;95.03;;;33.90;;
28266;SDS011;15525;45.568;5.448;2024-01-11T07:22:34;82.55;;;30.83;;
28266;SDS011;15525;45.568;5.448;2024-01-11T07:24:59;89.28;;;32.20;;
28266;SDS011;15525;45.568;5.448;2024-01-11T07:27:25;93.78;;;34.80;;
28266;SDS011;15525;45.568;5.448;2024-01-11T07:29:50;95.55;;;33.65;;
28266;SDS011;15525;45.568;5.448;2024-01-11T07:32:16;91.72;;;31.77;;
28266;SDS011;15525;45.568;5.448;2024-01-11T07:34:41;89.82;;;30.98;;
28266;SDS011;15525;45.568;5.448;2024-01-11T07:37:07;88.15;;;33.53;;
28266;SDS011;15525;45.568;5.448;2024-01-11T07:39:33;94.30;;;32.35;;
28266;SDS011;15525;45.568;5.448;2024-01-11T07:41:59;87.57;;;32.72;;
28266;SDS011;15525;45.568;5.448;2024-01-11T07:44:24;87.95;;;32.40;;
28266;SDS011;15525;45.568;5.448;2024-01-11T07:46:50;88.50;;;32.50;;
28266;SDS011;15525;45.568;5.448;2024-01-11T07:49:15;86.82;;;30.58;;
28266;SDS011;15525;45.568;5.448;2024-01-11T07:51:40;86.55;;;31.88;;
28266;SDS011;15525;45.568;5.448;2024-01-11T07:54:06;97.50;;;35.35;;
28266;SDS011;15525;45.568;5.448;2024-01-11T07:56:32;88.22;;;32.72;;
28266;SDS011;15525;45.568;5.448;2024-01-11T07:58:57;94.05;;;34.30;;
28266;SDS011;15525;45.568;5.448;2024-01-11T08:01:22;94.28;;;33.40;;
28266;SDS011;15525;45.568;5.448;2024-01-11T08:03:48;107.38;;;39.75;;
28266;SDS011;15525;45.568;5.448;2024-01-11T08:06:17;92.90;;;33.65;;
28266;SDS011;15525;45.568;5.448;2024-01-11T08:08:42;83.05;;;31.60;;
28266;SDS011;15525;45.568;5.448;2024-01-11T08:11:08;101.20;;;36.25;;
28266;SDS011;15525;45.568;5.448;2024-01-11T08:13:34;138.07;;;47.50;;
28266;SDS011;15525;45.568;5.448;2024-01-11T08:16:02;104.63;;;36.63;;
28266;SDS011;15525;45.568;5.448;2024-01-11T08:18:30;93.10;;;34.20;;
28266;SDS011;15525;45.568;5.448;2024-01-11T08:20:55;91.22;;;32.92;;
28266;SDS011;15525;45.568;5.448;2024-01-11T08:23:21;91.40;;;31.70;;
28266;SDS011;15525;45.568;5.448;2024-01-11T08:25:48;95.68;;;31.65;;
28266;SDS011;15525;45.568;5.448;2024-01-11T08:28:14;80.70;;;29.80;;
28266;SDS011;15525;45.568;5.448;2024-01-11T08:30:39;80.63;;;29.33;;
28266;SDS011;15525;45.568;5.448;2024-01-11T08:33:05;85.57;;;30.52;;
28266;SDS011;15525;45.568;5.448;2024-01-11T08:35:30;79.28;;;29.33;;
28266;SDS011;15525;45.568;5.448;2024-01-11T08:37:57;87.45;;;30.38;;
28266;SDS011;15525;45.568;5.448;2024-01-11T08:40:22;76.45;;;29.45;;
28266;SDS011;15525;45.568;5.448;2024-01-11T08:42:48;85.18;;;31.83;;
28266;SDS011;15525;45.568;5.448;2024-01-11T08:45:13;86.85;;;30.63;;
28266;SDS011;15525;45.568;5.448;2024-01-11T08:47:43;86.20;;;30.23;;
28266;SDS011;15525;45.568;5.448;2024-01-11T08:50:15;85.38;;;29.35;;
28266;SDS011;15525;45.568;5.448;2024-01-11T08:52:41;75.45;;;28.75;;
28266;SDS011;15525;45.568;5.448;2024-01-11T08:55:07;87.32;;;30.70;;
28266;SDS011;15525;45.568;5.448;2024-01-11T08:57:33;94.07;;;31.08;;
28266;SDS011;15525;45.568;5.448;2024-01-11T09:00:00;87.47;;;30.55;;
28266;SDS011;15525;45.568;5.448;2024-01-11T09:02:31;83.90;;;28.67;;
28266;SDS011;15525;45.568;5.448;2024-01-11T09:04:56;88.25;;;30.83;;
28266;SDS011;15525;45.568;5.448;2024-01-11T09:07:22;83.45;;;28.52;;
28266;SDS011;15525;45.568;5.448;2024-01-11T09:09:47;82.22;;;28.92;;
28266;SDS011;15525;45.568;5.448;2024-01-11T09:12:13;85.35;;;29.45;;
28266;SDS011;15525;45.568;5.448;2024-01-11T09:14:38;78.55;;;29.10;;
28266;SDS011;15525;45.568;5.448;2024-01-11T09:17:04;74.95;;;28.75;;
28266;SDS011;15525;45.568;5.448;2024-01-11T09:19:31;79.75;;;29.00;;
28266;SDS011;15525;45.568;5.448;2024-01-11T09:21:59;79.07;;;27.98;;
28266;SDS011;15525;45.568;5.448;2024-01-11T09:24:25;84.00;;;28.98;;
28266;SDS011;15525;45.568;5.448;2024-01-11T09:26:51;81.22;;;28.58;;
28266;SDS011;15525;45.568;5.448;2024-01-11T09:29:16;79.57;;;29.08;;
28266;SDS011;15525;45.568;5.448;2024-01-11T09:31:42;79.50;;;27.50;;
28266;SDS011;15525;45.568;5.448;2024-01-11T09:34:07;80.38;;;28.02;;
28266;SDS011;15525;45.568;5.448;2024-01-11T09:36:33;73.57;;;27.67;;
28266;SDS011;15525;45.568;5.448;2024-01-11T09:38:58;69.63;;;26.25;;
28266;SDS011;15525;45.568;5.448;2024-01-11T09:41:24;69.90;;;25.40;;
28266;SDS011;15525;45.568;5.448;2024-01-11T09:43:50;76.40;;;28.48;;
28266;SDS011;15525;45.568;5.448;2024-01-11T09:46:19;78.35;;;28.63;;
28266;SDS011;15525;45.568;5.448;2024-01-11T09:48:46;73.32;;;27.80;;
28266;SDS011;15525;45.568;5.448;2024-01-11T09:51:13;80.78;;;27.90;;
28266;SDS011;15525;45.568;5.448;2024-01-11T09:53:38;72.28;;;25.98;;
28266;SDS011;15525;45.568;5.448;2024-01-11T09:56:09;70.88;;;26.48;;
28266;SDS011;15525;45.568;5.448;2024-01-11T09:58:35;69.30;;;26.20;;
28266;SDS011;15525;45.568;5.448;2024-01-11T10:01:01;74.55;;;26.38;;
28266;SDS011;15525;45.568;5.448;2024-01-11T10:03:27;78.32;;;26.63;;
28266;SDS011;15525;45.568;5.448;2024-01-11T10:05:57;67.47;;;25.05;;
28266;SDS011;15525;45.568;5.448;2024-01-11T10:08:23;76.43;;;26.10;;
28266;SDS011;15525;45.568;5.448;2024-01-11T10:10:49;78.28;;;27.33;;
28266;SDS011;15525;45.568;5.448;2024-01-11T10:13:17;76.70;;;26.83;;
28266;SDS011;15525;45.568;5.448;2024-01-11T10:15:43;74.97;;;26.75;;
28266;SDS011;15525;45.568;5.448;2024-01-11T10:18:09;73.50;;;25.83;;
28266;SDS011;15525;45.568;5.448;2024-01-11T10:20:35;68.60;;;25.95;;
28266;SDS011;15525;45.568;5.448;2024-01-11T10:23:01;72.70;;;25.55;;
28266;SDS011;15525;45.568;5.448;2024-01-11T10:25:27;72.03;;;25.83;;
28266;SDS011;15525;45.568;5.448;2024-01-11T10:27:53;69.18;;;25.40;;
28266;SDS011;15525;45.568;5.448;2024-01-11T10:30:19;72.93;;;24.50;;
28266;SDS011;15525;45.568;5.448;2024-01-11T10:32:47;68.53;;;26.38;;
28266;SDS011;15525;45.568;5.448;2024-01-11T10:35:13;70.18;;;25.58;;
28266;SDS011;15525;45.568;5.448;2024-01-11T10:37:38;70.15;;;26.15;;
28266;SDS011;15525;45.568;5.448;2024-01-11T10:40:05;63.58;;;24.80;;
28266;SDS011;15525;45.568;5.448;2024-01-11T10:42:44;76.32;;;26.20;;
28266;SDS011;15525;45.568;5.448;2024-01-11T10:45:14;69.20;;;25.40;;
28266;SDS011;15525;45.568;5.448;2024-01-11T10:47:51;67.53;;;25.52;;
28266;SDS011;15525;45.568;5.448;2024-01-11T10:50:19;66.38;;;24.90;;
28266;SDS011;15525;45.568;5.448;2024-01-11T10:52:56;70.07;;;25.50;;
28266;SDS011;15525;45.568;5.448;2024-01-11T10:55:24;65.13;;;24.67;;
28266;SDS011;15525;45.568;5.448;2024-01-11T10:57:50;64.63;;;24.42;;
28266;SDS011;15525;45.568;5.448;2024-01-11T11:00:16;63.47;;;24.42;;
28266;SDS011;15525;45.568;5.448;2024-01-11T11:02:43;69.95;;;25.63;;
28266;SDS011;15525;45.568;5.448;2024-01-11T11:05:11;68.88;;;25.73;;
28266;SDS011;15525;45.568;5.448;2024-01-11T11:07:38;64.43;;;25.02;;
28266;SDS011;15525;45.568;5.448;2024-01-11T11:10:04;63.85;;;25.33;;
28266;SDS011;15525;45.568;5.448;2024-01-11T11:12:33;69.47;;;25.45;;
28266;SDS011;15525;45.568;5.448;2024-01-11T11:15:01;66.60;;;25.83;;
28266;SDS011;15525;45.568;5.448;2024-01-11T11:17:28;66.80;;;25.38;;
28266;SDS011;15525;45.568;5.448;2024-01-11T11:19:54;66.63;;;27.10;;
28266;SDS011;15525;45.568;5.448;2024-01-11T11:22:20;66.38;;;27.08;;
28266;SDS011;15525;45.568;5.448;2024-01-11T11:24:46;65.30;;;27.77;;
28266;SDS011;15525;45.568;5.448;2024-01-11T11:27:14;62.50;;;23.73;;
28266;SDS011;15525;45.568;5.448;2024-01-11T11:29:41;52.80;;;22.20;;
28266;SDS011;15525;45.568;5.448;2024-01-11T11:32:06;57.47;;;22.77;;
28266;SDS011;15525;45.568;5.448;2024-01-11T11:34:42;58.63;;;23.40;;
28266;SDS011;15525;45.568;5.448;2024-01-11T11:37:09;56.55;;;22.80;;
28266;SDS011;15525;45.568;5.448;2024-01-11T11:39:35;61.03;;;23.60;;
28266;SDS011;15525;45.568;5.448;2024-01-11T11:42:01;57.13;;;23.17;;
28266;SDS011;15525;45.568;5.448;2024-01-11T11:44:26;55.05;;;21.70;;
28266;SDS011;15525;45.568;5.448;2024-01-11T11:46:52;56.95;;;24.35;;
28266;SDS011;15525;45.568;5.448;2024-01-11T11:49:18;58.35;;;23.23;;
28266;SDS011;15525;45.568;5.448;2024-01-11T11:51:43;60.10;;;25.45;;
28266;SDS011;15525;45.568;5.448;2024-01-11T11:54:09;58.35;;;23.77;;
28266;SDS011;15525;45.568;5.448;2024-01-11T11:56:35;53.05;;;21.98;;
28266;SDS011;15525;45.568;5.448;2024-01-11T11:59:01;61.45;;;24.05;;
28266;SDS011;15525;45.568;5.448;2024-01-11T12:01:28;58.45;;;23.10;;
28266;SDS011;15525;45.568;5.448;2024-01-11T12:03:56;58.42;;;23.25;;
28266;SDS011;15525;45.568;5.448;2024-01-11T12:06:22;60.45;;;23.50;;
28266;SDS011;15525;45.568;5.448;2024-01-11T12:08:49;58.70;;;23.58;;
28266;SDS011;15525;45.568;5.448;2024-01-11T12:11:21;55.80;;;21.58;;
28266;SDS011;15525;45.568;5.448;2024-01-11T12:13:48;58.25;;;22.83;;
28266;SDS011;15525;45.568;5.448;2024-01-11T12:16:14;55.47;;;22.20;;
28266;SDS011;15525;45.568;5.448;2024-01-11T12:18:40;55.17;;;22.73;;
28266;SDS011;15525;45.568;5.448;2024-01-11T12:21:06;60.75;;;24.20;;
28266;SDS011;15525;45.568;5.448;2024-01-11T12:23:35;57.33;;;22.40;;
28266;SDS011;15525;45.568;5.448;2024-01-11T12:26:02;54.00;;;21.75;;
28266;SDS011;15525;45.568;5.448;2024-01-11T12:28:32;57.60;;;22.90;;
28266;SDS011;15525;45.568;5.448;2024-01-11T12:30:58;56.10;;;22.92;;
28266;SDS011;15525;45.568;5.448;2024-01-11T12:33:23;54.65;;;22.98;;
28266;SDS011;15525;45.568;5.448;2024-01-11T12:35:51;56.10;;;22.17;;
28266;SDS011;15525;45.568;5.448;2024-01-11T12:38:17;56.28;;;23.02;;
28266;SDS011;15525;45.568;5.448;2024-01-11T12:40:42;57.65;;;22.85;;
28266;SDS011;15525;45.568;5.448;2024-01-11T12:43:08;55.30;;;21.48;;
28266;SDS011;15525;45.568;5.448;2024-01-11T12:45:34;52.28;;;21.52;;
28266;SDS011;15525;45.568;5.448;2024-01-11T12:48:00;55.10;;;20.98;;
28266;SDS011;15525;45.568;5.448;2024-01-11T12:50:26;53.70;;;21.20;;
28266;SDS011;15525;45.568;5.448;2024-01-11T12:55:31;49.55;;;19.63;;
28266;SDS011;15525;45.568;5.448;2024-01-11T12:58:08;46.47;;;19.50;;
28266;SDS011;15525;45.568;5.448;2024-01-11T13:00:37;46.42;;;19.83;;
28266;SDS011;15525;45.568;5.448;2024-01-11T13:03:06;46.78;;;19.35;;
28266;SDS011;15525;45.568;5.448;2024-01-11T13:05:32;43.78;;;19.02;;
28266;SDS011;15525;45.568;5.448;2024-01-11T13:08:02;47.33;;;19.45;;
28266;SDS011;15525;45.568;5.448;2024-01-11T13:10:37;46.45;;;19.20;;
28266;SDS011;15525;45.568;5.448;2024-01-11T13:13:03;42.47;;;18.13;;
28266;SDS011;15525;45.568;5.448;2024-01-11T13:15:29;45.92;;;19.75;;
28266;SDS011;15525;45.568;5.448;2024-01-11T13:17:56;47.83;;;19.10;;
28266;SDS011;15525;45.568;5.448;2024-01-11T13:20:22;52.13;;;20.58;;
28266;SDS011;15525;45.568;5.448;2024-01-11T13:22:49;47.00;;;18.98;;
28266;SDS011;15525;45.568;5.448;2024-01-11T13:25:34;45.75;;;19.25;;
28266;SDS011;15525;45.568;5.448;2024-01-11T13:28:01;46.47;;;19.15;;
28266;SDS011;15525;45.568;5.448;2024-01-11T13:30:26;45.72;;;19.95;;
28266;SDS011;15525;45.568;5.448;2024-01-11T13:32:52;43.38;;;18.67;;
28266;SDS011;15525;45.568;5.448;2024-01-11T13:35:17;47.55;;;19.92;;
28266;SDS011;15525;45.568;5.448;2024-01-11T13:37:45;45.38;;;19.23;;
28266;SDS011;15525;45.568;5.448;2024-01-11T13:40:10;47.60;;;20.05;;
28266;SDS011;15525;45.568;5.448;2024-01-11T13:42:38;52.13;;;20.90;;
28266;SDS011;15525;45.568;5.448;2024-01-11T13:45:04;51.65;;;19.85;;
28266;SDS011;15525;45.568;5.448;2024-01-11T13:47:33;47.40;;;20.25;;
28266;SDS011;15525;45.568;5.448;2024-01-11T13:49:59;50.55;;;21.70;;
28266;SDS011;15525;45.568;5.448;2024-01-11T13:52:24;52.75;;;20.70;;
28266;SDS011;15525;45.568;5.448;2024-01-11T13:54:50;49.90;;;20.88;;
28266;SDS011;15525;45.568;5.448;2024-01-11T13:57:15;47.40;;;19.73;;
28266;SDS011;15525;45.568;5.448;2024-01-11T13:59:41;47.38;;;20.08;;
28266;SDS011;15525;45.568;5.448;2024-01-11T14:02:07;60.08;;;26.25;;
28266;SDS011;15525;45.568;5.448;2024-01-11T14:04:32;53.22;;;23.45;;
28266;SDS011;15525;45.568;5.448;2024-01-11T14:06:58;55.35;;;24.05;;
28266;SDS011;15525;45.568;5.448;2024-01-11T14:09:23;53.45;;;23.80;;
28266;SDS011;15525;45.568;5.448;2024-01-11T14:11:49;49.92;;;22.20;;